sensor_id;sensor_type;location;lat;lon;timestamp;temperature;humidity
4934;DHT22;2482;49.154;8.254;2024-01-10T00:00:48;-4.40;99.90
4934;DHT22;2482;49.154;8.254;2024-01-10T00:03:26;-4.40;99.90
4934;DHT22;2482;49.154;8.254;2024-01-10T00:05:59;-4.40;99.90
4934;DHT22;2482;49.154;8.254;2024-01-10T00:08:37;-4.30;99.90
4934;DHT22;2482;49.154;8.254;2024-01-10T00:11:05;-4.40;99.90
4934;DHT22;2482;49.154;8.254;2024-01-10T00:13:41;-4.50;99.90
4934;DHT22;2482;49.154;8.254;2024-01-10T00:16:18;-4.50;99.90
4934;DHT22;2482;49.154;8.254;2024-01-10T00:18:54;-4.60;99.90
4934;DHT22;2482;49.154;8.254;2024-01-10T00:21:32;-4.50;99.90
4934;DHT22;2482;49.154;8.254;2024-01-10T00:24:04;-4.50;99.90
4934;DHT22;2482;49.154;8.254;2024-01-10T00:26:37;-4.40;99.90
4934;DHT22;2482;49.154;8.254;2024-01-10T00:29:13;-4.50;99.90
4934;DHT22;2482;49.154;8.254;2024-01-10T00:31:41;-4.50;99.90
4934;DHT22;2482;49.154;8.254;2024-01-10T00:34:22;-4.50;99.90
4934;DHT22;2482;49.154;8.254;2024-01-10T00:36:59;-4.50;99.90
4934;DHT22;2482;49.154;8.254;2024-01-10T00:39:32;-4.50;99.90
4934;DHT22;2482;49.154;8.254;2024-01-10T00:42:13;-4.50;99.90
4934;DHT22;2482;49.154;8.254;2024-01-10T00:44:51;-4.50;99.90
4934;DHT22;2482;49.154;8.254;2024-01-10T00:47:22;-4.50;99.90
4934;DHT22;2482;49.154;8.254;2024-01-10T00:49:55;-4.40;99.90
4934;DHT22;2482;49.154;8.254;2024-01-10T00:52:25;-4.50;99.90
4934;DHT22;2482;49.154;8.254;2024-01-10T00:54:55;-4.40;99.90
4934;DHT22;2482;49.154;8.254;2024-01-10T00:57:23;-4.40;99.90
4934;DHT22;2482;49.154;8.254;2024-01-10T00:59:55;-4.30;99.90
4934;DHT22;2482;49.154;8.254;2024-01-10T01:02:37;-4.30;99.90
4934;DHT22;2482;49.154;8.254;2024-01-10T01:05:18;-4.30;99.90
4934;DHT22;2482;49.154;8.254;2024-01-10T01:07:59;-4.30;99.90
4934;DHT22;2482;49.154;8.254;2024-01-10T01:10:33;-4.40;99.90
4934;DHT22;2482;49.154;8.254;2024-01-10T01:13:08;-4.40;99.90
4934;DHT22;2482;49.154;8.254;2024-01-10T01:15:40;-4.50;99.90
4934;DHT22;2482;49.154;8.254;2024-01-10T01:18:17;-4.30;99.90
4934;DHT22;2482;49.154;8.254;2024-01-10T01:20:46;-4.30;99.90
4934;DHT22;2482;49.154;8.254;2024-01-10T01:23:19;-4.30;99.90
4934;DHT22;2482;49.154;8.254;2024-01-10T01:26:12;-4.30;99.90
4934;DHT22;2482;49.154;8.254;2024-01-10T01:28:46;-4.40;99.90
4934;DHT22;2482;49.154;8.254;2024-01-10T01:31:23;-4.30;99.90
4934;DHT22;2482;49.154;8.254;2024-01-10T01:33:56;-4.40;99.90
4934;DHT22;2482;49.154;8.254;2024-01-10T01:36:31;-4.30;99.90
4934;DHT22;2482;49.154;8.254;2024-01-10T01:39:01;-4.30;99.90
4934;DHT22;2482;49.154;8.254;2024-01-10T01:41:34;-4.40;99.90
4934;DHT22;2482;49.154;8.254;2024-01-10T01:44:01;-4.40;99.90
4934;DHT22;2482;49.154;8.254;2024-01-10T01:46:33;-4.30;99.90
4934;DHT22;2482;49.154;8.254;2024-01-10T01:49:00;-4.30;99.90
4934;DHT22;2482;49.154;8.254;2024-01-10T01:51:29;-4.40;99.90
4934;DHT22;2482;49.154;8.254;2024-01-10T01:54:01;-4.40;99.90
4934;DHT22;2482;49.154;8.254;2024-01-10T01:56:38;-4.50;99.90
4934;DHT22;2482;49.154;8.254;2024-01-10T01:59:13;-4.40;99.90
4934;DHT22;2482;49.154;8.254;2024-01-10T02:01:41;-4.30;99.90
4934;DHT22;2482;49.154;8.254;2024-01-10T02:04:09;-4.40;99.90
4934;DHT22;2482;49.154;8.254;2024-01-10T02:06:37;-4.40;99.90
4934;DHT22;2482;49.154;8.254;2024-01-10T02:09:10;-4.40;99.90
4934;DHT22;2482;49.154;8.254;2024-01-10T02:11:47;-4.40;99.90
4934;DHT22;2482;49.154;8.254;2024-01-10T02:14:15;-4.40;99.90
4934;DHT22;2482;49.154;8.254;2024-01-10T02:16:46;-4.40;99.90
4934;DHT22;2482;49.154;8.254;2024-01-10T02:19:22;-4.40;99.90
4934;DHT22;2482;49.154;8.254;2024-01-10T02:22:01;-4.50;99.90
4934;DHT22;2482;49.154;8.254;2024-01-10T02:24:32;-4.50;99.90
4934;DHT22;2482;49.154;8.254;2024-01-10T02:27:15;-4.50;99.90
4934;DHT22;2482;49.154;8.254;2024-01-10T02:29:43;-4.50;99.90
4934;DHT22;2482;49.154;8.254;2024-01-10T02:32:18;-4.50;99.90
4934;DHT22;2482;49.154;8.254;2024-01-10T02:34:51;-4.40;99.90
4934;DHT22;2482;49.154;8.254;2024-01-10T02:37:25;-4.40;99.90
4934;DHT22;2482;49.154;8.254;2024-01-10T02:39:59;-4.50;99.90
4934;DHT22;2482;49.154;8.254;2024-01-10T02:42:28;-4.40;99.90
4934;DHT22;2482;49.154;8.254;2024-01-10T02:44:57;-4.40;99.90
4934;DHT22;2482;49.154;8.254;2024-01-10T02:47:28;-4.40;99.90
4934;DHT22;2482;49.154;8.254;2024-01-10T02:49:58;-4.40;99.90
4934;DHT22;2482;49.154;8.254;2024-01-10T02:52:26;-4.50;99.90
4934;DHT22;2482;49.154;8.254;2024-01-10T02:54:53;-4.50;99.90
4934;DHT22;2482;49.154;8.254;2024-01-10T02:57:23;-4.50;99.90
4934;DHT22;2482;49.154;8.254;2024-01-10T02:59:52;-4.40;99.90
4934;DHT22;2482;49.154;8.254;2024-01-10T03:02:26;-4.40;99.90
4934;DHT22;2482;49.154;8.254;2024-01-10T03:04:54;-4.50;99.90
4934;DHT22;2482;49.154;8.254;2024-01-10T03:07:22;-4.50;99.90
4934;DHT22;2482;49.154;8.254;2024-01-10T03:09:54;-4.50;99.90
4934;DHT22;2482;49.154;8.254;2024-01-10T03:12:27;-4.50;99.90
4934;DHT22;2482;49.154;8.254;2024-01-10T03:14:58;-4.50;99.90
4934;DHT22;2482;49.154;8.254;2024-01-10T03:17:33;-4.40;99.90
4934;DHT22;2482;49.154;8.254;2024-01-10T03:20:06;-4.50;99.90
4934;DHT22;2482;49.154;8.254;2024-01-10T03:22:41;-4.50;99.90
4934;DHT22;2482;49.154;8.254;2024-01-10T03:25:11;-4.50;99.90
4934;DHT22;2482;49.154;8.254;2024-01-10T03:27:39;-4.60;99.90
4934;DHT22;2482;49.154;8.254;2024-01-10T03:30:18;-4.50;99.90
4934;DHT22;2482;49.154;8.254;2024-01-10T03:32:54;-4.50;99.90
4934;DHT22;2482;49.154;8.254;2024-01-10T03:35:29;-4.50;99.90
4934;DHT22;2482;49.154;8.254;2024-01-10T03:37:57;-4.50;99.90
4934;DHT22;2482;49.154;8.254;2024-01-10T03:40:25;-4.50;99.90
4934;DHT22;2482;49.154;8.254;2024-01-10T03:42:53;-4.50;99.90
4934;DHT22;2482;49.154;8.254;2024-01-10T03:45:21;-4.70;99.90
4934;DHT22;2482;49.154;8.254;2024-01-10T03:47:50;-4.60;99.90
4934;DHT22;2482;49.154;8.254;2024-01-10T03:50:21;-4.70;99.90
4934;DHT22;2482;49.154;8.254;2024-01-10T03:52:51;-4.60;99.90
4934;DHT22;2482;49.154;8.254;2024-01-10T03:55:19;-4.70;99.90
4934;DHT22;2482;49.154;8.254;2024-01-10T03:57:50;-4.70;99.90
4934;DHT22;2482;49.154;8.254;2024-01-10T04:00:18;-4.80;99.90
4934;DHT22;2482;49.154;8.254;2024-01-10T04:02:46;-4.70;99.90
4934;DHT22;2482;49.154;8.254;2024-01-10T04:05:22;-4.80;99.90
4934;DHT22;2482;49.154;8.254;2024-01-10T04:07:56;-4.80;99.90
4934;DHT22;2482;49.154;8.254;2024-01-10T04:10:33;-4.80;99.90
4934;DHT22;2482;49.154;8.254;2024-01-10T04:13:01;-4.80;99.90
4934;DHT22;2482;49.154;8.254;2024-01-10T04:15:29;-4.80;99.90
4934;DHT22;2482;49.154;8.254;2024-01-10T04:17:59;-4.80;99.90
4934;DHT22;2482;49.154;8.254;2024-01-10T04:20:27;-4.80;99.90
4934;DHT22;2482;49.154;8.254;2024-01-10T04:22:55;-4.90;99.90
4934;DHT22;2482;49.154;8.254;2024-01-10T04:25:23;-4.90;99.90
4934;DHT22;2482;49.154;8.254;2024-01-10T04:27:54;-5.00;99.90
4934;DHT22;2482;49.154;8.254;2024-01-10T04:30:23;-5.00;99.90
4934;DHT22;2482;49.154;8.254;2024-01-10T04:33:00;-5.00;99.90
4934;DHT22;2482;49.154;8.254;2024-01-10T04:35:32;-5.10;99.90
4934;DHT22;2482;49.154;8.254;2024-01-10T04:38:03;-4.90;99.90
4934;DHT22;2482;49.154;8.254;2024-01-10T04:40:30;-5.00;99.90
4934;DHT22;2482;49.154;8.254;2024-01-10T04:43:01;-5.00;99.90
4934;DHT22;2482;49.154;8.254;2024-01-10T04:45:31;-5.00;99.90
4934;DHT22;2482;49.154;8.254;2024-01-10T04:47:58;-5.10;99.90
4934;DHT22;2482;49.154;8.254;2024-01-10T04:50:29;-5.10;99.90
4934;DHT22;2482;49.154;8.254;2024-01-10T04:52:59;-5.00;99.90
4934;DHT22;2482;49.154;8.254;2024-01-10T04:55:34;-5.10;99.90
4934;DHT22;2482;49.154;8.254;2024-01-10T04:58:10;-5.20;99.90
4934;DHT22;2482;49.154;8.254;2024-01-10T05:00:38;-5.30;99.90
4934;DHT22;2482;49.154;8.254;2024-01-10T05:03:05;-5.20;99.90
4934;DHT22;2482;49.154;8.254;2024-01-10T05:05:41;-5.30;99.90
4934;DHT22;2482;49.154;8.254;2024-01-10T05:08:09;-5.20;99.90
4934;DHT22;2482;49.154;8.254;2024-01-10T05:10:38;-5.20;99.90
4934;DHT22;2482;49.154;8.254;2024-01-10T05:13:06;-5.10;99.90
4934;DHT22;2482;49.154;8.254;2024-01-10T05:15:34;-5.20;99.90
4934;DHT22;2482;49.154;8.254;2024-01-10T05:18:14;-5.10;99.90
4934;DHT22;2482;49.154;8.254;2024-01-10T05:20:45;-5.00;99.90
4934;DHT22;2482;49.154;8.254;2024-01-10T05:23:15;-5.00;99.90
4934;DHT22;2482;49.154;8.254;2024-01-10T05:25:54;-4.80;99.90
4934;DHT22;2482;49.154;8.254;2024-01-10T05:28:22;-4.90;99.90
4934;DHT22;2482;49.154;8.254;2024-01-10T05:30:53;-4.90;99.90
4934;DHT22;2482;49.154;8.254;2024-01-10T05:33:29;-4.90;99.90
4934;DHT22;2482;49.154;8.254;2024-01-10T05:36:00;-4.90;99.90
4934;DHT22;2482;49.154;8.254;2024-01-10T05:38:28;-4.90;99.90
4934;DHT22;2482;49.154;8.254;2024-01-10T05:40:56;-4.80;99.90
4934;DHT22;2482;49.154;8.254;2024-01-10T05:43:26;-4.90;99.90
4934;DHT22;2482;49.154;8.254;2024-01-10T05:45:59;-4.90;99.90
4934;DHT22;2482;49.154;8.254;2024-01-10T05:48:37;-4.90;99.90
4934;DHT22;2482;49.154;8.254;2024-01-10T05:51:11;-4.80;99.90
4934;DHT22;2482;49.154;8.254;2024-01-10T05:53:39;-4.80;99.90
4934;DHT22;2482;49.154;8.254;2024-01-10T05:56:07;-4.70;99.90
4934;DHT22;2482;49.154;8.254;2024-01-10T05:58:40;-4.90;99.90
4934;DHT22;2482;49.154;8.254;2024-01-10T06:01:10;-4.60;99.90
4934;DHT22;2482;49.154;8.254;2024-01-10T06:03:41;-5.00;99.90
4934;DHT22;2482;49.154;8.254;2024-01-10T06:06:11;-4.90;99.90
4934;DHT22;2482;49.154;8.254;2024-01-10T06:08:45;-4.80;99.90
4934;DHT22;2482;49.154;8.254;2024-01-10T06:11:15;-4.70;99.90
4934;DHT22;2482;49.154;8.254;2024-01-10T06:13:48;-4.80;99.90
4934;DHT22;2482;49.154;8.254;2024-01-10T06:16:23;-5.00;99.90
4934;DHT22;2482;49.154;8.254;2024-01-10T06:18:54;-4.90;99.90
4934;DHT22;2482;49.154;8.254;2024-01-10T06:21:25;-5.00;99.90
4934;DHT22;2482;49.154;8.254;2024-01-10T06:24:08;-4.80;99.90
4934;DHT22;2482;49.154;8.254;2024-01-10T06:26:39;-4.90;99.90
4934;DHT22;2482;49.154;8.254;2024-01-10T06:29:11;-5.00;99.90
4934;DHT22;2482;49.154;8.254;2024-01-10T06:31:39;-5.00;99.90
4934;DHT22;2482;49.154;8.254;2024-01-10T06:34:09;-5.00;99.90
4934;DHT22;2482;49.154;8.254;2024-01-10T06:36:37;-4.90;99.90
4934;DHT22;2482;49.154;8.254;2024-01-10T06:39:09;-4.90;99.90
4934;DHT22;2482;49.154;8.254;2024-01-10T06:41:42;-4.90;99.90
4934;DHT22;2482;49.154;8.254;2024-01-10T06:44:11;-4.90;99.90
4934;DHT22;2482;49.154;8.254;2024-01-10T06:46:44;-5.00;99.90
4934;DHT22;2482;49.154;8.254;2024-01-10T06:49:15;-5.10;99.90
4934;DHT22;2482;49.154;8.254;2024-01-10T06:51:47;-5.10;99.90
4934;DHT22;2482;49.154;8.254;2024-01-10T06:54:20;-5.10;99.90
4934;DHT22;2482;49.154;8.254;2024-01-10T06:56:58;-5.10;99.90
4934;DHT22;2482;49.154;8.254;2024-01-10T06:59:28;-5.10;99.90
4934;DHT22;2482;49.154;8.254;2024-01-10T07:01:59;-5.10;99.90
4934;DHT22;2482;49.154;8.254;2024-01-10T07:04:29;-4.90;99.90
4934;DHT22;2482;49.154;8.254;2024-01-10T07:06:58;-4.90;99.90
4934;DHT22;2482;49.154;8.254;2024-01-10T07:09:29;-4.90;99.90
4934;DHT22;2482;49.154;8.254;2024-01-10T07:11:58;-4.90;99.90
4934;DHT22;2482;49.154;8.254;2024-01-10T07:14:26;-4.70;99.90
4934;DHT22;2482;49.154;8.254;2024-01-10T07:16:56;-4.60;99.90
4934;DHT22;2482;49.154;8.254;2024-01-10T07:19:29;-4.50;99.90
4934;DHT22;2482;49.154;8.254;2024-01-10T07:21:58;-4.50;99.90
4934;DHT22;2482;49.154;8.254;2024-01-10T07:24:34;-4.50;99.90
4934;DHT22;2482;49.154;8.254;2024-01-10T07:27:02;-4.40;99.90
4934;DHT22;2482;49.154;8.254;2024-01-10T07:29:30;-4.40;99.90
4934;DHT22;2482;49.154;8.254;2024-01-10T07:32:05;-4.30;99.90
4934;DHT22;2482;49.154;8.254;2024-01-10T07:34:33;-4.20;99.90
4934;DHT22;2482;49.154;8.254;2024-01-10T07:37:01;-4.30;99.90
4934;DHT22;2482;49.154;8.254;2024-01-10T07:39:30;-4.30;99.90
4934;DHT22;2482;49.154;8.254;2024-01-10T07:41:58;-4.20;99.90
4934;DHT22;2482;49.154;8.254;2024-01-10T07:44:27;-4.20;99.90
4934;DHT22;2482;49.154;8.254;2024-01-10T07:46:55;-4.20;99.90
4934;DHT22;2482;49.154;8.254;2024-01-10T07:49:23;-4.20;99.90
4934;DHT22;2482;49.154;8.254;2024-01-10T07:51:54;-4.20;99.90
4934;DHT22;2482;49.154;8.254;2024-01-10T07:54:25;-4.10;99.90
4934;DHT22;2482;49.154;8.254;2024-01-10T07:56:55;-4.10;99.90
4934;DHT22;2482;49.154;8.254;2024-01-10T07:59:25;-4.10;99.90
4934;DHT22;2482;49.154;8.254;2024-01-10T08:02:00;-4.10;99.90
4934;DHT22;2482;49.154;8.254;2024-01-10T08:04:34;-4.10;99.90
4934;DHT22;2482;49.154;8.254;2024-01-10T08:07:06;-4.00;99.90
4934;DHT22;2482;49.154;8.254;2024-01-10T08:09:36;-4.10;99.90
4934;DHT22;2482;49.154;8.254;2024-01-10T08:12:09;-4.00;99.90
4934;DHT22;2482;49.154;8.254;2024-01-10T08:14:43;-4.00;99.90
4934;DHT22;2482;49.154;8.254;2024-01-10T08:17:13;-4.10;99.90
4934;DHT22;2482;49.154;8.254;2024-01-10T08:19:41;-4.10;99.90
4934;DHT22;2482;49.154;8.254;2024-01-10T08:22:09;-4.00;99.90
4934;DHT22;2482;49.154;8.254;2024-01-10T08:24:37;-4.00;99.90
4934;DHT22;2482;49.154;8.254;2024-01-10T08:27:09;-4.10;99.90
4934;DHT22;2482;49.154;8.254;2024-01-10T08:29:40;-4.00;99.90
4934;DHT22;2482;49.154;8.254;2024-01-10T08:32:12;-4.00;99.90
4934;DHT22;2482;49.154;8.254;2024-01-10T08:34:40;-3.90;99.90
4934;DHT22;2482;49.154;8.254;2024-01-10T08:37:13;-3.80;99.90
4934;DHT22;2482;49.154;8.254;2024-01-10T08:39:48;-3.90;99.90
4934;DHT22;2482;49.154;8.254;2024-01-10T08:42:20;-3.90;99.90
4934;DHT22;2482;49.154;8.254;2024-01-10T08:44:48;-3.80;99.90
4934;DHT22;2482;49.154;8.254;2024-01-10T08:47:19;-3.80;99.90
4934;DHT22;2482;49.154;8.254;2024-01-10T08:49:51;-3.80;99.90
4934;DHT22;2482;49.154;8.254;2024-01-10T08:52:19;-3.70;99.90
4934;DHT22;2482;49.154;8.254;2024-01-10T08:54:46;-3.60;99.90
4934;DHT22;2482;49.154;8.254;2024-01-10T08:57:20;-3.40;99.90
4934;DHT22;2482;49.154;8.254;2024-01-10T08:59:50;-3.40;99.90
4934;DHT22;2482;49.154;8.254;2024-01-10T09:02:18;-3.30;99.90
4934;DHT22;2482;49.154;8.254;2024-01-10T09:04:46;-3.30;99.90
4934;DHT22;2482;49.154;8.254;2024-01-10T09:07:15;-3.10;99.90
4934;DHT22;2482;49.154;8.254;2024-01-10T09:09:49;-3.10;99.90
4934;DHT22;2482;49.154;8.254;2024-01-10T09:12:17;-3.10;99.90
4934;DHT22;2482;49.154;8.254;2024-01-10T09:14:45;-3.00;99.90
4934;DHT22;2482;49.154;8.254;2024-01-10T09:17:15;-2.90;99.90
4934;DHT22;2482;49.154;8.254;2024-01-10T09:19:46;-2.80;99.90
4934;DHT22;2482;49.154;8.254;2024-01-10T09:22:18;-2.80;99.90
4934;DHT22;2482;49.154;8.254;2024-01-10T09:24:49;-2.70;99.90
4934;DHT22;2482;49.154;8.254;2024-01-10T09:27:16;-2.70;99.90
4934;DHT22;2482;49.154;8.254;2024-01-10T09:29:44;-2.60;99.90
4934;DHT22;2482;49.154;8.254;2024-01-10T09:32:12;-2.50;99.90
4934;DHT22;2482;49.154;8.254;2024-01-10T09:34:40;-2.40;99.90
4934;DHT22;2482;49.154;8.254;2024-01-10T09:37:10;-2.30;99.90
4934;DHT22;2482;49.154;8.254;2024-01-10T09:39:38;-2.40;99.90
4934;DHT22;2482;49.154;8.254;2024-01-10T09:42:05;-2.20;99.90
4934;DHT22;2482;49.154;8.254;2024-01-10T09:44:34;-2.10;99.90
4934;DHT22;2482;49.154;8.254;2024-01-10T09:47:09;-2.10;99.90
4934;DHT22;2482;49.154;8.254;2024-01-10T09:49:44;-2.10;99.90
4934;DHT22;2482;49.154;8.254;2024-01-10T09:52:25;-1.90;99.90
4934;DHT22;2482;49.154;8.254;2024-01-10T09:54:58;-1.80;99.90
4934;DHT22;2482;49.154;8.254;2024-01-10T09:57:31;-1.80;99.90
4934;DHT22;2482;49.154;8.254;2024-01-10T10:00:01;-1.90;99.90
4934;DHT22;2482;49.154;8.254;2024-01-10T10:02:40;-1.80;99.90
4934;DHT22;2482;49.154;8.254;2024-01-10T10:05:17;-1.70;99.90
4934;DHT22;2482;49.154;8.254;2024-01-10T10:07:51;-1.60;99.90
4934;DHT22;2482;49.154;8.254;2024-01-10T10:10:23;-1.60;99.90
4934;DHT22;2482;49.154;8.254;2024-01-10T10:13:04;-1.40;99.90
4934;DHT22;2482;49.154;8.254;2024-01-10T10:15:37;-1.40;99.90
4934;DHT22;2482;49.154;8.254;2024-01-10T10:18:14;-1.30;99.90
4934;DHT22;2482;49.154;8.254;2024-01-10T10:20:49;-1.30;99.90
4934;DHT22;2482;49.154;8.254;2024-01-10T10:23:57;-1.20;99.90
4934;DHT22;2482;49.154;8.254;2024-01-10T10:26:29;-1.20;99.90
4934;DHT22;2482;49.154;8.254;2024-01-10T10:29:16;-1.00;99.90
4934;DHT22;2482;49.154;8.254;2024-01-10T10:31:48;-1.00;99.90
4934;DHT22;2482;49.154;8.254;2024-01-10T10:34:22;-1.00;99.90
4934;DHT22;2482;49.154;8.254;2024-01-10T10:36:51;-1.00;99.90
4934;DHT22;2482;49.154;8.254;2024-01-10T10:39:24;-1.00;99.90
4934;DHT22;2482;49.154;8.254;2024-01-10T10:41:55;-1.00;99.90
4934;DHT22;2482;49.154;8.254;2024-01-10T10:44:34;-0.90;99.90
4934;DHT22;2482;49.154;8.254;2024-01-10T10:47:12;-0.70;99.90
4934;DHT22;2482;49.154;8.254;2024-01-10T10:49:51;-0.80;99.90
4934;DHT22;2482;49.154;8.254;2024-01-10T10:52:38;-0.90;99.90
4934;DHT22;2482;49.154;8.254;2024-01-10T10:55:26;-0.90;99.90
4934;DHT22;2482;49.154;8.254;2024-01-10T10:58:01;-1.10;99.90
4934;DHT22;2482;49.154;8.254;2024-01-10T11:00:40;-1.20;99.90
4934;DHT22;2482;49.154;8.254;2024-01-10T11:03:10;-1.10;99.90
4934;DHT22;2482;49.154;8.254;2024-01-10T11:05:42;-1.10;99.90
4934;DHT22;2482;49.154;8.254;2024-01-10T11:08:14;-0.90;99.90
4934;DHT22;2482;49.154;8.254;2024-01-10T11:10:46;-0.80;99.90
4934;DHT22;2482;49.154;8.254;2024-01-10T11:23:43;-0.60;99.90
4934;DHT22;2482;49.154;8.254;2024-01-10T11:26:19;-0.50;99.90
4934;DHT22;2482;49.154;8.254;2024-01-10T11:28:55;-0.50;99.90
4934;DHT22;2482;49.154;8.254;2024-01-10T11:31:29;-0.40;99.90
4934;DHT22;2482;49.154;8.254;2024-01-10T11:34:01;-0.30;99.90
4934;DHT22;2482;49.154;8.254;2024-01-10T11:36:38;-0.40;99.90
4934;DHT22;2482;49.154;8.254;2024-01-10T11:39:06;-0.30;99.90
4934;DHT22;2482;49.154;8.254;2024-01-10T11:41:39;-0.10;99.90
4934;DHT22;2482;49.154;8.254;2024-01-10T11:46:53;0.00;99.90
4934;DHT22;2482;49.154;8.254;2024-01-10T11:49:34;0.10;99.90
4934;DHT22;2482;49.154;8.254;2024-01-10T11:52:09;0.00;99.90
4934;DHT22;2482;49.154;8.254;2024-01-10T11:54:43;0.10;99.90
4934;DHT22;2482;49.154;8.254;2024-01-10T11:57:19;0.20;99.90
4934;DHT22;2482;49.154;8.254;2024-01-10T11:59:55;0.10;99.90
4934;DHT22;2482;49.154;8.254;2024-01-10T12:02:23;0.00;99.90
4934;DHT22;2482;49.154;8.254;2024-01-10T12:04:55;0.00;99.90
4934;DHT22;2482;49.154;8.254;2024-01-10T12:07:29;0.20;99.90
4934;DHT22;2482;49.154;8.254;2024-01-10T12:09:57;0.20;99.90
4934;DHT22;2482;49.154;8.254;2024-01-10T12:12:31;0.30;99.90
4934;DHT22;2482;49.154;8.254;2024-01-10T12:14:59;0.20;99.90
4934;DHT22;2482;49.154;8.254;2024-01-10T12:17:28;0.30;99.90
4934;DHT22;2482;49.154;8.254;2024-01-10T12:19:58;0.30;99.90
4934;DHT22;2482;49.154;8.254;2024-01-10T12:22:37;0.20;99.90
4934;DHT22;2482;49.154;8.254;2024-01-10T12:25:16;0.20;99.90
4934;DHT22;2482;49.154;8.254;2024-01-10T12:27:50;0.10;99.90
4934;DHT22;2482;49.154;8.254;2024-01-10T12:30:28;0.30;99.90
4934;DHT22;2482;49.154;8.254;2024-01-10T12:33:21;0.30;99.90
4934;DHT22;2482;49.154;8.254;2024-01-10T12:36:10;0.30;99.90
4934;DHT22;2482;49.154;8.254;2024-01-10T12:38:47;0.20;99.90
4934;DHT22;2482;49.154;8.254;2024-01-10T12:41:30;0.10;99.90
4934;DHT22;2482;49.154;8.254;2024-01-10T12:44:06;0.20;99.90
4934;DHT22;2482;49.154;8.254;2024-01-10T12:46:35;0.20;99.90
4934;DHT22;2482;49.154;8.254;2024-01-10T12:49:22;0.30;99.90
4934;DHT22;2482;49.154;8.254;2024-01-10T12:51:55;0.30;99.90
4934;DHT22;2482;49.154;8.254;2024-01-10T12:54:25;0.40;99.90
4934;DHT22;2482;49.154;8.254;2024-01-10T12:57:02;0.30;99.90
4934;DHT22;2482;49.154;8.254;2024-01-10T12:59:35;0.30;99.90
4934;DHT22;2482;49.154;8.254;2024-01-10T13:02:10;0.30;99.90
4934;DHT22;2482;49.154;8.254;2024-01-10T13:04:40;0.30;99.90
4934;DHT22;2482;49.154;8.254;2024-01-10T13:07:13;0.30;99.90
4934;DHT22;2482;49.154;8.254;2024-01-10T13:09:44;0.50;99.90
4934;DHT22;2482;49.154;8.254;2024-01-10T13:12:17;0.60;99.90
4934;DHT22;2482;49.154;8.254;2024-01-10T13:14:55;0.50;99.90
4934;DHT22;2482;49.154;8.254;2024-01-10T13:17:38;0.50;99.90
4934;DHT22;2482;49.154;8.254;2024-01-10T13:20:09;0.50;99.90
4934;DHT22;2482;49.154;8.254;2024-01-10T13:22:43;0.70;99.90
4934;DHT22;2482;49.154;8.254;2024-01-10T13:25:17;0.50;99.90
4934;DHT22;2482;49.154;8.254;2024-01-10T13:27:53;0.50;99.90
4934;DHT22;2482;49.154;8.254;2024-01-10T13:30:31;0.50;99.90
4934;DHT22;2482;49.154;8.254;2024-01-10T13:33:11;0.40;99.90
4934;DHT22;2482;49.154;8.254;2024-01-10T13:35:51;0.30;99.90
4934;DHT22;2482;49.154;8.254;2024-01-10T13:38:26;0.40;99.90
4934;DHT22;2482;49.154;8.254;2024-01-10T13:40:56;0.50;99.90
4934;DHT22;2482;49.154;8.254;2024-01-10T13:43:28;0.50;99.90
4934;DHT22;2482;49.154;8.254;2024-01-10T13:46:04;0.50;99.90
4934;DHT22;2482;49.154;8.254;2024-01-10T13:48:40;0.50;99.90
4934;DHT22;2482;49.154;8.254;2024-01-10T13:51:15;0.60;99.90
4934;DHT22;2482;49.154;8.254;2024-01-10T13:53:54;0.60;99.90
4934;DHT22;2482;49.154;8.254;2024-01-10T13:56:21;0.60;99.90
4934;DHT22;2482;49.154;8.254;2024-01-10T13:58:55;0.70;99.90
4934;DHT22;2482;49.154;8.254;2024-01-10T14:01:27;0.60;99.90
4934;DHT22;2482;49.154;8.254;2024-01-10T14:04:03;0.70;99.90
4934;DHT22;2482;49.154;8.254;2024-01-10T14:06:34;0.70;99.90
4934;DHT22;2482;49.154;8.254;2024-01-10T14:09:01;0.60;99.90
4934;DHT22;2482;49.154;8.254;2024-01-10T14:11:32;0.60;99.90
4934;DHT22;2482;49.154;8.254;2024-01-10T14:14:21;0.60;99.90
4934;DHT22;2482;49.154;8.254;2024-01-10T14:16:52;0.60;99.90
4934;DHT22;2482;49.154;8.254;2024-01-10T14:19:22;0.60;99.90
4934;DHT22;2482;49.154;8.254;2024-01-10T14:21:50;0.70;99.90
4934;DHT22;2482;49.154;8.254;2024-01-10T14:24:28;0.60;99.90
4934;DHT22;2482;49.154;8.254;2024-01-10T14:27:10;0.60;99.90
4934;DHT22;2482;49.154;8.254;2024-01-10T14:29:44;0.60;99.90
4934;DHT22;2482;49.154;8.254;2024-01-10T14:32:15;0.60;99.90
4934;DHT22;2482;49.154;8.254;2024-01-10T14:34:46;0.50;99.90
4934;DHT22;2482;49.154;8.254;2024-01-10T14:37:20;0.40;99.90
4934;DHT22;2482;49.154;8.254;2024-01-10T14:39:51;0.40;99.90
4934;DHT22;2482;49.154;8.254;2024-01-10T14:42:24;0.50;99.90
4934;DHT22;2482;49.154;8.254;2024-01-10T14:45:00;0.40;99.90
4934;DHT22;2482;49.154;8.254;2024-01-10T14:47:28;0.30;99.90
4934;DHT22;2482;49.154;8.254;2024-01-10T14:50:01;0.30;99.90
4934;DHT22;2482;49.154;8.254;2024-01-10T14:52:32;0.40;99.90
4934;DHT22;2482;49.154;8.254;2024-01-10T14:55:08;0.30;99.90
4934;DHT22;2482;49.154;8.254;2024-01-10T14:57:40;0.30;99.90
4934;DHT22;2482;49.154;8.254;2024-01-10T15:00:08;0.30;99.90
4934;DHT22;2482;49.154;8.254;2024-01-10T15:02:37;0.20;99.90
4934;DHT22;2482;49.154;8.254;2024-01-10T15:05:10;0.10;99.90
4934;DHT22;2482;49.154;8.254;2024-01-10T15:07:41;0.20;99.90
4934;DHT22;2482;49.154;8.254;2024-01-10T15:10:11;0.10;99.90
4934;DHT22;2482;49.154;8.254;2024-01-10T15:12:44;0.10;99.90
4934;DHT22;2482;49.154;8.254;2024-01-10T15:15:15;0.10;99.90
4934;DHT22;2482;49.154;8.254;2024-01-10T15:17:47;0.00;99.90
4934;DHT22;2482;49.154;8.254;2024-01-10T15:20:25;-0.10;99.90
4934;DHT22;2482;49.154;8.254;2024-01-10T15:22:58;-0.10;99.90
4934;DHT22;2482;49.154;8.254;2024-01-10T15:25:26;-0.10;99.90
4934;DHT22;2482;49.154;8.254;2024-01-10T15:27:54;-0.10;99.90
4934;DHT22;2482;49.154;8.254;2024-01-10T15:30:33;-0.20;99.90
4934;DHT22;2482;49.154;8.254;2024-01-10T15:33:15;-0.20;99.90
4934;DHT22;2482;49.154;8.254;2024-01-10T15:35:48;-0.20;99.90
4934;DHT22;2482;49.154;8.254;2024-01-10T15:38:26;-0.20;99.90
4934;DHT22;2482;49.154;8.254;2024-01-10T15:41:02;-0.20;99.90
4934;DHT22;2482;49.154;8.254;2024-01-10T15:43:47;-0.30;99.90
4934;DHT22;2482;49.154;8.254;2024-01-10T15:46:21;-0.40;99.90
4934;DHT22;2482;49.154;8.254;2024-01-10T15:48:54;-0.60;99.90
4934;DHT22;2482;49.154;8.254;2024-01-10T15:51:24;-0.70;99.90
4934;DHT22;2482;49.154;8.254;2024-01-10T15:53:56;-0.70;99.90
4934;DHT22;2482;49.154;8.254;2024-01-10T15:56:30;-0.60;99.90
4934;DHT22;2482;49.154;8.254;2024-01-10T15:59:11;-0.70;99.90
4934;DHT22;2482;49.154;8.254;2024-01-10T16:01:43;-0.90;99.90
4934;DHT22;2482;49.154;8.254;2024-01-10T16:04:22;-1.00;99.90
4934;DHT22;2482;49.154;8.254;2024-01-10T16:07:03;-1.10;99.90
4934;DHT22;2482;49.154;8.254;2024-01-10T16:09:42;-0.90;99.90
4934;DHT22;2482;49.154;8.254;2024-01-10T16:12:19;-1.00;99.90
4934;DHT22;2482;49.154;8.254;2024-01-10T16:14:54;-1.10;99.90
4934;DHT22;2482;49.154;8.254;2024-01-10T16:17:30;-1.10;99.90
4934;DHT22;2482;49.154;8.254;2024-01-10T16:20:06;-1.10;99.90
4934;DHT22;2482;49.154;8.254;2024-01-10T16:22:45;-1.10;99.90
4934;DHT22;2482;49.154;8.254;2024-01-10T16:25:20;-1.10;99.90
4934;DHT22;2482;49.154;8.254;2024-01-10T16:27:58;-1.20;99.90
4934;DHT22;2482;49.154;8.254;2024-01-10T16:30:33;-1.10;99.90
4934;DHT22;2482;49.154;8.254;2024-01-10T16:33:07;-1.10;99.90
4934;DHT22;2482;49.154;8.254;2024-01-10T16:35:39;-1.20;99.90
4934;DHT22;2482;49.154;8.254;2024-01-10T16:38:13;-1.50;99.90
4934;DHT22;2482;49.154;8.254;2024-01-10T16:40:45;-1.50;99.90
4934;DHT22;2482;49.154;8.254;2024-01-10T16:43:18;-1.80;99.90
4934;DHT22;2482;49.154;8.254;2024-01-10T16:45:48;-1.70;99.90
4934;DHT22;2482;49.154;8.254;2024-01-10T16:48:19;-1.60;99.90
4934;DHT22;2482;49.154;8.254;2024-01-10T16:50:48;-1.50;99.90
4934;DHT22;2482;49.154;8.254;2024-01-10T16:53:22;-1.50;99.90